Terminal Aerodrome Forecast
Issued by NWS Memphis, TN

Home | Current Version | Previous Version | Text Only | Print | Product List | Glossary On
Versions: 1 2 3 4 5 6 7 8 9 10 11 12 13 14 15 16
192
FTUS44 KMEG 231748 AAA
TAFJBR
TAF AMD
KJBR 231748Z 2318/2418 01010G20KT P6SM SCT025
     FM232100 33010KT P6SM SCT025
     FM240000 VRB03KT P6SM SKC
      TEMPO 2403/2407 4SM BR
     FM240700 VRB03KT 3SM BR SCT250=

USA.gov is the U.S. government's official web portal to all federal, state and local government web resources and services.